Time,TemperatureF,DewpointF,PressureIn,WindDirection,WindDirectionDegrees,WindSpeedMPH,WindSpeedGustMPH,Humidity,HourlyPrecipIn,Conditions,Clouds,dailyrainin,SolarRadiationWatts/m^2,SoftwareType,DateUTC
2013-02-18 00:00:00,24.1,13.7,30.03,SE,134,1.0,3.0,64,0.00,,,0.00,0,Wunderground v.1.15,2013-02-18 06:00:00,
2013-02-18 00:06:00,24.1,13.7,30.03,SE,145,2.0,6.0,64,0.00,,,0.00,0,Wunderground v.1.15,2013-02-18 06:06:00,
2013-02-18 00:11:00,24.2,13.8,30.03,SE,124,3.0,3.0,64,0.00,,,0.00,0,Wunderground v.1.15,2013-02-18 06:11:00,
2013-02-18 00:18:00,24.4,14.0,30.02,SE,135,2.0,3.0,64,0.00,,,0.00,0,Wunderground v.1.15,2013-02-18 06:18:00,
2013-02-18 00:24:00,24.5,14.1,30.02,ESE,120,2.0,2.0,64,0.00,,,0.00,0,Wunderground v.1.15,2013-02-18 06:24:00,
2013-02-18 00:29:00,24.6,14.1,30.02,SE,138,2.0,2.0,64,0.00,,,0.00,0,Wunderground v.1.15,2013-02-18 06:29:00,
2013-02-18 00:35:00,24.8,14.3,30.01,ESE,117,2.0,3.0,64,0.00,,,0.00,0,Wunderground v.1.15,2013-02-18 06:35:00,
2013-02-18 00:41:00,25.0,14.5,30.01,SE,128,2.0,2.0,64,0.00,,,0.00,0,Wunderground v.1.15,2013-02-18 06:41:00,
2013-02-18 00:46:00,25.1,14.6,30.01,SE,135,2.0,3.0,64,0.00,,,0.00,0,Wunderground v.1.15,2013-02-18 06:46:00,
2013-02-18 00:53:00,25.1,14.6,30.01,SE,128,3.0,5.0,64,0.00,,,0.00,0,Wunderground v.1.15,2013-02-18 06:53:00,
2013-02-18 00:58:00,25.1,15.0,30.01,SE,133,2.0,5.0,65,0.00,,,0.00,0,Wunderground v.1.15,2013-02-18 06:58:00,
2013-02-18 01:03:00,25.2,15.1,30.00,SE,131,2.0,3.0,65,0.00,,,0.00,0,Wunderground v.1.15,2013-02-18 07:03:00,
2013-02-18 01:08:00,25.3,15.2,30.00,SE,144,2.0,3.0,65,0.00,,,0.00,0,Wunderground v.1.15,2013-02-18 07:08:00,
2013-02-18 01:14:00,25.1,15.0,30.00,ESE,121,2.0,3.0,65,0.00,,,0.00,0,Wunderground v.1.15,2013-02-18 07:14:00,
2013-02-18 01:20:00,25.2,15.1,30.00,SSE,147,2.0,2.0,65,0.00,,,0.00,0,Wunderground v.1.15,2013-02-18 07:20:00,
2013-02-18 01:26:00,25.2,15.1,30.00,ESE,121,3.0,3.0,65,0.00,,,0.00,0,Wunderground v.1.15,2013-02-18 07:26:00,
2013-02-18 01:31:00,25.2,15.4,29.99,East,95,2.0,2.0,66,0.00,,,0.00,0,Wunderground v.1.15,2013-02-18 07:31:00,
2013-02-18 01:38:00,25.0,15.2,29.99,SE,143,1.0,2.0,66,0.00,,,0.00,0,Wunderground v.1.15,2013-02-18 07:38:00,
2013-02-18 01:43:00,25.1,15.3,29.99,ESE,119,1.0,4.0,66,0.00,,,0.00,0,Wunderground v.1.15,2013-02-18 07:43:00,
2013-02-18 01:49:00,25.1,15.3,29.98,SSE,157,2.0,4.0,66,0.00,,,0.00,0,Wunderground v.1.15,2013-02-18 07:49:00,
2013-02-18 01:54:00,25.2,15.4,29.98,ESE,110,2.0,3.0,66,0.00,,,0.00,0,Wunderground v.1.15,2013-02-18 07:54:00,
2013-02-18 02:00:00,25.1,15.7,29.98,ESE,115,2.0,2.0,67,0.00,,,0.00,0,Wunderground v.1.15,2013-02-18 08:00:00,
2013-02-18 02:05:00,25.0,15.6,29.98,ESE,103,2.0,3.0,67,0.00,,,0.00,0,Wunderground v.1.15,2013-02-18 08:05:00,
2013-02-18 02:11:00,25.1,15.7,29.98,ESE,105,2.0,5.0,67,0.00,,,0.00,0,Wunderground v.1.15,2013-02-18 08:11:00,
2013-02-18 02:18:00,24.9,15.8,29.95,East,84,2.0,5.0,68,0.00,,,0.00,0,Wunderground v.1.15,2013-02-18 08:18:00,
2013-02-18 02:23:00,25.0,15.9,29.95,ESE,106,2.0,2.0,68,0.00,,,0.00,0,Wunderground v.1.15,2013-02-18 08:23:00,
2013-02-18 02:29:00,25.0,15.9,29.95,ESE,123,2.0,4.0,68,0.00,,,0.00,0,Wunderground v.1.15,2013-02-18 08:29:00,
2013-02-18 02:35:00,25.1,16.0,29.95,East,87,2.0,2.0,68,0.00,,,0.00,0,Wunderground v.1.15,2013-02-18 08:35:00,
2013-02-18 02:40:00,25.2,16.1,29.95,SE,132,1.0,2.0,68,0.00,,,0.00,0,Wunderground v.1.15,2013-02-18 08:40:00,
2013-02-18 02:46:00,25.4,16.0,29.93,ESE,117,2.0,4.0,67,0.00,,,0.00,0,Wunderground v.1.15,2013-02-18 08:46:00,
2013-02-18 02:51:00,25.4,16.3,29.93,SE,132,2.0,5.0,68,0.00,,,0.00,0,Wunderground v.1.15,2013-02-18 08:51:00,
2013-02-18 02:58:00,25.4,16.3,29.93,ESE,121,3.0,5.0,68,0.00,,,0.00,0,Wunderground v.1.15,2013-02-18 08:58:00,
2013-02-18 03:04:00,25.6,16.2,29.92,SSE,147,3.0,3.0,67,0.00,,,0.00,0,Wunderground v.1.15,2013-02-18 09:04:00,
2013-02-18 03:10:00,25.7,16.3,29.92,ESE,119,3.0,4.0,67,0.00,,,0.00,0,Wunderground v.1.15,2013-02-18 09:10:00,
2013-02-18 03:16:00,25.7,16.3,29.91,SE,125,3.0,6.0,67,0.00,,,0.00,0,Wunderground v.1.15,2013-02-18 09:16:00,
2013-02-18 03:23:00,25.8,16.7,29.91,ESE,115,3.0,7.0,68,0.00,,,0.00,0,Wunderground v.1.15,2013-02-18 09:23:00,
2013-02-18 03:29:00,25.7,16.6,29.91,SE,138,2.0,7.0,68,0.00,,,0.00,0,Wunderground v.1.15,2013-02-18 09:29:00,
2013-02-18 03:35:00,25.8,16.7,29.90,SE,127,2.0,8.0,68,0.00,,,0.00,0,Wunderground v.1.15,2013-02-18 09:35:00,
2013-02-18 03:40:00,25.7,16.6,29.90,SE,139,3.0,3.0,68,0.00,,,0.00,0,Wunderground v.1.15,2013-02-18 09:40:00,
2013-02-18 03:46:00,25.6,16.8,29.88,ESE,107,2.0,3.0,69,0.00,,,0.00,0,Wunderground v.1.15,2013-02-18 09:46:00,
2013-02-18 03:51:00,25.8,16.7,29.88,SE,127,3.0,3.0,68,0.00,,,0.00,0,Wunderground v.1.15,2013-02-18 09:51:00,
2013-02-18 03:58:00,25.8,17.0,29.88,ESE,104,2.0,3.0,69,0.00,,,0.00,0,Wunderground v.1.15,2013-02-18 09:58:00,
2013-02-18 04:04:00,25.7,16.9,29.87,ESE,118,3.0,3.0,69,0.00,,,0.00,0,Wunderground v.1.15,2013-02-18 10:04:00,
2013-02-18 04:10:00,25.7,16.9,29.87,ESE,123,2.0,2.0,69,0.00,,,0.00,0,Wunderground v.1.15,2013-02-18 10:10:00,
2013-02-18 04:15:00,25.6,16.8,29.87,SE,140,2.0,3.0,69,0.00,,,0.00,0,Wunderground v.1.15,2013-02-18 10:15:00,
2013-02-18 04:21:00,25.7,17.3,29.87,East,92,1.0,2.0,70,0.00,,,0.00,0,Wunderground v.1.15,2013-02-18 10:21:00,
2013-02-18 04:28:00,25.7,17.3,29.87,ESE,109,1.0,2.0,70,0.00,,,0.00,0,Wunderground v.1.15,2013-02-18 10:28:00,
2013-02-18 04:33:00,25.8,17.4,29.86,SE,140,2.0,3.0,70,0.00,,,0.00,0,Wunderground v.1.15,2013-02-18 10:33:00,
2013-02-18 04:39:00,25.7,17.3,29.86,ESE,103,2.0,5.0,70,0.00,,,0.00,0,Wunderground v.1.15,2013-02-18 10:39:00,
2013-02-18 04:44:00,25.8,17.4,29.86,SE,143,2.0,4.0,70,0.00,,,0.00,0,Wunderground v.1.15,2013-02-18 10:44:00,
2013-02-18 04:50:00,26.0,17.6,29.85,SSE,150,2.0,2.0,70,0.00,,,0.00,0,Wunderground v.1.15,2013-02-18 10:50:00,
2013-02-18 04:56:00,26.0,17.6,29.85,ESE,113,2.0,5.0,70,0.00,,,0.00,0,Wunderground v.1.15,2013-02-18 10:56:00,
2013-02-18 05:03:00,26.2,17.7,29.84,SE,134,2.0,4.0,70,0.00,,,0.00,0,Wunderground v.1.15,2013-02-18 11:03:00,
2013-02-18 05:08:00,26.3,17.8,29.84,SSE,149,2.0,4.0,70,0.00,,,0.00,0,Wunderground v.1.15,2013-02-18 11:08:00,
2013-02-18 05:13:00,26.4,17.9,29.84,SE,125,2.0,2.0,70,0.00,,,0.00,0,Wunderground v.1.15,2013-02-18 11:13:00,
2013-02-18 05:18:00,26.6,18.1,29.83,SSE,157,2.0,2.0,70,0.00,,,0.00,0,Wunderground v.1.15,2013-02-18 11:18:00,
2013-02-18 05:24:00,26.7,18.2,29.83,ESE,114,1.0,2.0,70,0.00,,,0.00,0,Wunderground v.1.15,2013-02-18 11:24:00,
2013-02-18 05:30:00,26.8,18.7,29.83,ESE,121,2.0,2.0,71,0.00,,,0.00,0,Wunderground v.1.15,2013-02-18 11:30:00,
2013-02-18 05:35:00,26.9,18.4,29.83,ESE,107,2.0,5.0,70,0.00,,,0.00,0,Wunderground v.1.15,2013-02-18 11:35:00,
2013-02-18 05:41:00,26.9,18.7,29.83,ESE,116,2.0,2.0,71,0.00,,,0.00,0,Wunderground v.1.15,2013-02-18 11:41:00,
2013-02-18 05:48:00,26.8,18.7,29.82,ESE,118,1.0,2.0,71,0.00,,,0.00,0,Wunderground v.1.15,2013-02-18 11:48:00,
2013-02-18 05:53:00,27.0,18.8,29.82,ESE,111,1.0,1.0,71,0.00,,,0.00,0,Wunderground v.1.15,2013-02-18 11:53:00,
2013-02-18 05:59:00,27.5,19.3,29.82,ESE,116,2.0,4.0,71,0.00,,,0.00,0,Wunderground v.1.15,2013-02-18 11:59:00,
2013-02-18 06:04:00,27.8,19.6,29.81,SSE,148,2.0,3.0,71,0.00,,,0.00,0,Wunderground v.1.15,2013-02-18 12:04:00,
2013-02-18 06:10:00,28.3,20.1,29.81,SE,139,2.0,4.0,71,0.00,,,0.00,0,Wunderground v.1.15,2013-02-18 12:10:00,
2013-02-18 06:15:00,28.8,20.2,29.80,SE,143,3.0,4.0,70,0.00,,,0.00,0,Wunderground v.1.15,2013-02-18 12:15:00,
2013-02-18 06:20:00,29.4,20.8,29.80,SE,129,3.0,5.0,70,0.00,,,0.00,0,Wunderground v.1.15,2013-02-18 12:20:00,
2013-02-18 06:26:00,29.7,21.1,29.80,SE,130,3.0,5.0,70,0.00,,,0.00,0,Wunderground v.1.15,2013-02-18 12:26:00,
2013-02-18 06:31:00,30.0,21.1,29.80,SSE,147,3.0,5.0,69,0.00,,,0.00,0,Wunderground v.1.15,2013-02-18 12:31:00,
2013-02-18 06:36:00,30.3,21.3,29.80,SSE,153,3.0,5.0,69,0.00,,,0.00,0,Wunderground v.1.15,2013-02-18 12:36:00,
2013-02-18 06:43:00,30.4,21.8,29.80,SSE,167,2.0,4.0,70,0.00,,,0.00,0,Wunderground v.1.15,2013-02-18 12:43:00,
2013-02-18 06:49:00,30.7,21.7,29.79,SE,130,2.0,4.0,69,0.00,,,0.00,0,Wunderground v.1.15,2013-02-18 12:49:00,
2013-02-18 06:54:00,30.9,21.9,29.79,SW,223,2.0,7.0,69,0.00,,,0.00,5,Wunderground v.1.15,2013-02-18 12:54:00,
2013-02-18 07:00:00,31.0,22.0,29.78,WNW,292,2.0,2.0,69,0.00,,,0.00,11,Wunderground v.1.15,2013-02-18 13:00:00,
2013-02-18 07:06:00,31.1,22.1,29.78,SSE,153,3.0,9.0,69,0.00,,,0.00,18,Wunderground v.1.15,2013-02-18 13:06:00,
2013-02-18 07:11:00,31.2,22.2,29.78,SSE,168,3.0,5.0,69,0.00,,,0.00,25,Wunderground v.1.15,2013-02-18 13:11:00,
2013-02-18 07:19:00,31.4,22.4,29.78,SE,144,3.0,5.0,69,0.00,,,0.00,32,Wunderground v.1.15,2013-02-18 13:19:00,
2013-02-18 07:24:00,31.5,22.5,29.78,SSE,153,3.0,3.0,69,0.00,,,0.00,37,Wunderground v.1.15,2013-02-18 13:24:00,
2013-02-18 07:30:00,31.6,22.6,29.78,SSE,163,3.0,3.0,69,0.00,,,0.00,46,Wunderground v.1.15,2013-02-18 13:30:00,
2013-02-18 07:36:00,31.8,23.1,29.78,SSE,154,2.0,4.0,70,0.00,,,0.00,54,Wunderground v.1.15,2013-02-18 13:36:00,
2013-02-18 07:41:00,31.9,23.2,29.78,SSE,161,3.0,4.0,70,0.00,,,0.00,63,Wunderground v.1.15,2013-02-18 13:41:00,
2013-02-18 07:48:00,32.2,23.2,29.78,SSE,161,3.0,4.0,69,0.00,,,0.00,77,Wunderground v.1.15,2013-02-18 13:48:00,
2013-02-18 07:53:00,32.2,23.5,29.78,South,184,2.0,7.0,70,0.00,,,0.00,86,Wunderground v.1.15,2013-02-18 13:53:00,
2013-02-18 07:59:00,32.3,23.6,29.78,SSE,162,2.0,7.0,70,0.00,,,0.00,91,Wunderground v.1.15,2013-02-18 13:59:00,
2013-02-18 08:04:00,32.5,23.8,29.77,SSW,209,2.0,8.0,70,0.00,,,0.00,97,Wunderground v.1.15,2013-02-18 14:04:00,
2013-02-18 08:10:00,32.9,24.2,29.77,SW,232,3.0,3.0,70,0.00,,,0.00,105,Wunderground v.1.15,2013-02-18 14:10:00,
2013-02-18 08:15:00,33.0,24.3,29.76,SE,126,3.0,3.0,70,0.00,,,0.00,111,Wunderground v.1.15,2013-02-18 14:15:00,
2013-02-18 08:21:00,33.2,24.5,29.76,SE,144,2.0,4.0,70,0.00,,,0.00,125,Wunderground v.1.15,2013-02-18 14:21:00,
2013-02-18 08:27:00,33.4,24.7,29.76,SE,135,2.0,5.0,70,0.00,,,0.00,132,Wunderground v.1.15,2013-02-18 14:27:00,
2013-02-18 08:33:00,33.8,25.0,29.76,SE,138,2.0,6.0,70,0.00,,,0.00,135,Wunderground v.1.15,2013-02-18 14:33:00,
2013-02-18 08:39:00,34.1,25.7,29.76,ESE,108,2.0,7.0,71,0.00,,,0.00,139,Wunderground v.1.15,2013-02-18 14:39:00,
2013-02-18 08:44:00,34.5,25.7,29.76,South,185,3.0,4.0,70,0.00,,,0.00,149,Wunderground v.1.15,2013-02-18 14:44:00,
2013-02-18 08:49:00,34.9,26.4,29.75,SSE,158,3.0,6.0,71,0.00,,,0.00,167,Wunderground v.1.15,2013-02-18 14:49:00,
2013-02-18 08:54:00,35.0,26.5,29.75,SSE,155,2.0,3.0,71,0.00,,,0.00,197,Wunderground v.1.15,2013-02-18 14:54:00,
2013-02-18 09:00:00,35.5,27.0,29.74,SSE,156,1.0,7.0,71,0.00,,,0.00,218,Wunderground v.1.15,2013-02-18 15:00:00,
2013-02-18 09:06:00,35.9,27.1,29.74,SSW,205,2.0,7.0,70,0.00,,,0.00,220,Wunderground v.1.15,2013-02-18 15:06:00,
2013-02-18 09:14:00,36.5,27.6,29.74,SSE,157,3.0,3.0,70,0.00,,,0.00,236,Wunderground v.1.15,2013-02-18 15:14:00,
2013-02-18 09:20:00,36.8,27.9,29.74,SE,139,3.0,3.0,70,0.00,,,0.00,234,Wunderground v.1.15,2013-02-18 15:20:00,
2013-02-18 09:26:00,37.2,28.0,29.74,SSE,158,3.0,3.0,69,0.00,,,0.00,239,Wunderground v.1.15,2013-02-18 15:26:00,
2013-02-18 09:31:00,37.5,28.6,29.73,South,177,2.0,2.0,70,0.00,,,0.00,246,Wunderground v.1.15,2013-02-18 15:31:00,
2013-02-18 09:36:00,37.8,28.5,29.73,SSW,200,2.0,4.0,69,0.00,,,0.00,239,Wunderground v.1.15,2013-02-18 15:36:00,
2013-02-18 09:43:00,38.0,28.7,29.73,SSW,209,4.0,8.0,69,0.00,,,0.00,244,Wunderground v.1.15,2013-02-18 15:43:00,
2013-02-18 09:49:00,38.1,28.8,29.73,South,173,3.0,8.0,69,0.00,,,0.00,253,Wunderground v.1.15,2013-02-18 15:49:00,
2013-02-18 09:54:00,38.4,29.1,29.73,SSW,205,3.0,7.0,69,0.00,,,0.00,267,Wunderground v.1.15,2013-02-18 15:54:00,
2013-02-18 10:00:00,38.7,29.4,29.72,SE,146,3.0,3.0,69,0.00,,,0.00,281,Wunderground v.1.15,2013-02-18 16:00:00,
2013-02-18 10:05:00,38.8,29.5,29.72,South,184,3.0,4.0,69,0.00,,,0.00,285,Wunderground v.1.15,2013-02-18 16:05:00,
2013-02-18 10:10:00,39.1,29.8,29.72,SW,214,2.0,6.0,69,0.00,,,0.00,299,Wunderground v.1.15,2013-02-18 16:10:00,
2013-02-18 10:16:00,39.4,29.7,29.72,SSE,148,2.0,6.0,68,0.00,,,0.00,311,Wunderground v.1.15,2013-02-18 16:16:00,
2013-02-18 10:22:00,39.6,29.9,29.72,West,275,2.0,4.0,68,0.00,,,0.00,322,Wunderground v.1.15,2013-02-18 16:22:00,
2013-02-18 10:28:00,39.7,30.0,29.72,ESE,109,3.0,7.0,68,0.00,,,0.00,320,Wunderground v.1.15,2013-02-18 16:28:00,
2013-02-18 10:34:00,39.8,30.1,29.71,SSW,203,4.0,6.0,68,0.00,,,0.00,316,Wunderground v.1.15,2013-02-18 16:34:00,
2013-02-18 10:39:00,40.0,30.3,29.71,South,178,4.0,6.0,68,0.00,,,0.00,306,Wunderground v.1.15,2013-02-18 16:39:00,
2013-02-18 10:45:00,40.1,30.4,29.70,East,98,3.0,10.0,68,0.00,,,0.00,341,Wunderground v.1.15,2013-02-18 16:45:00,
2013-02-18 10:51:00,40.3,30.6,29.70,SE,140,3.0,8.0,68,0.00,,,0.00,366,Wunderground v.1.15,2013-02-18 16:51:00,
2013-02-18 10:56:00,40.6,30.9,29.70,SSE,153,4.0,8.0,68,0.00,,,0.00,323,Wunderground v.1.15,2013-02-18 16:56:00,
2013-02-18 11:01:00,40.5,31.1,29.69,South,178,3.0,4.0,69,0.00,,,0.00,302,Wunderground v.1.15,2013-02-18 17:01:00,
2013-02-18 11:08:00,40.8,31.4,29.69,SE,128,3.0,6.0,69,0.00,,,0.00,396,Wunderground v.1.15,2013-02-18 17:08:00,
2013-02-18 11:13:00,40.9,31.5,29.69,SSW,203,4.0,9.0,69,0.00,,,0.00,357,Wunderground v.1.15,2013-02-18 17:13:00,
2013-02-18 11:18:00,41.2,31.4,29.69,SSW,195,4.0,9.0,68,0.00,,,0.00,366,Wunderground v.1.15,2013-02-18 17:18:00,
2013-02-18 11:23:00,41.4,31.6,29.69,SSE,167,3.0,5.0,68,0.00,,,0.00,366,Wunderground v.1.15,2013-02-18 17:23:00,
2013-02-18 11:29:00,41.4,31.6,29.69,South,181,4.0,7.0,68,0.00,,,0.00,299,Wunderground v.1.15,2013-02-18 17:29:00,
2013-02-18 11:34:00,41.5,32.1,29.67,SSW,196,4.0,7.0,69,0.00,,,0.00,345,Wunderground v.1.15,2013-02-18 17:34:00,
2013-02-18 11:40:00,41.8,32.0,29.67,SSW,193,3.0,4.0,68,0.00,,,0.00,406,Wunderground v.1.15,2013-02-18 17:40:00,
2013-02-18 11:46:00,42.1,32.3,29.66,South,187,3.0,5.0,68,0.00,,,0.00,448,Wunderground v.1.15,2013-02-18 17:46:00,
2013-02-18 11:54:00,42.7,32.9,29.66,SSW,209,2.0,5.0,68,0.00,,,0.00,432,Wunderground v.1.15,2013-02-18 17:54:00,
2013-02-18 11:59:00,42.7,32.5,29.66,SSW,212,3.0,7.0,67,0.00,,,0.00,367,Wunderground v.1.15,2013-02-18 17:59:00,
2013-02-18 12:05:00,42.8,33.0,29.66,SSW,209,3.0,6.0,68,0.00,,,0.00,418,Wunderground v.1.15,2013-02-18 18:05:00,
2013-02-18 12:10:00,43.0,33.2,29.66,SSE,167,4.0,4.0,68,0.00,,,0.00,508,Wunderground v.1.15,2013-02-18 18:10:00,
2013-02-18 12:16:00,43.3,33.4,29.64,SSW,202,4.0,6.0,68,0.00,,,0.00,485,Wunderground v.1.15,2013-02-18 18:16:00,
2013-02-18 12:22:00,43.8,33.6,29.64,SW,219,3.0,4.0,67,0.00,,,0.00,496,Wunderground v.1.15,2013-02-18 18:22:00,
2013-02-18 12:29:00,44.1,33.8,29.64,South,187,3.0,4.0,67,0.00,,,0.00,513,Wunderground v.1.15,2013-02-18 18:29:00,
2013-02-18 12:34:00,44.4,34.1,29.64,SSW,204,4.0,14.0,67,0.00,,,0.00,369,Wunderground v.1.15,2013-02-18 18:34:00,
2013-02-18 12:40:00,44.2,34.3,29.64,SSE,153,4.0,4.0,68,0.00,,,0.00,385,Wunderground v.1.15,2013-02-18 18:40:00,
2013-02-18 12:46:00,44.4,34.5,29.64,South,191,4.0,10.0,68,0.00,,,0.00,466,Wunderground v.1.15,2013-02-18 18:46:00,
2013-02-18 12:51:00,44.8,34.9,29.64,South,182,4.0,10.0,68,0.00,,,0.00,526,Wunderground v.1.15,2013-02-18 18:51:00,
2013-02-18 12:56:00,45.1,35.2,29.64,South,182,4.0,10.0,68,0.00,,,0.00,580,Wunderground v.1.15,2013-02-18 18:56:00,
2013-02-18 13:01:00,45.4,35.5,29.62,South,171,3.0,3.0,68,0.00,,,0.00,452,Wunderground v.1.15,2013-02-18 19:01:00,
2013-02-18 13:08:00,45.3,35.4,29.62,South,185,3.0,6.0,68,0.00,,,0.00,290,Wunderground v.1.15,2013-02-18 19:08:00,
2013-02-18 13:13:00,45.1,35.5,29.62,South,188,3.0,4.0,69,0.00,,,0.00,274,Wunderground v.1.15,2013-02-18 19:13:00,
2013-02-18 13:19:00,45.2,35.6,29.62,SSW,200,4.0,7.0,69,0.00,,,0.00,322,Wunderground v.1.15,2013-02-18 19:19:00,
2013-02-18 13:24:00,45.5,35.9,29.62,SW,219,4.0,4.0,69,0.00,,,0.00,315,Wunderground v.1.15,2013-02-18 19:24:00,
2013-02-18 13:29:00,45.9,36.3,29.62,South,169,3.0,4.0,69,0.00,,,0.00,355,Wunderground v.1.15,2013-02-18 19:29:00,
2013-02-18 13:34:00,46.1,36.5,29.60,ESE,123,3.0,4.0,69,0.00,,,0.00,276,Wunderground v.1.15,2013-02-18 19:34:00,
2013-02-18 13:39:00,46.0,36.8,29.60,SSW,196,3.0,4.0,70,0.00,,,0.00,274,Wunderground v.1.15,2013-02-18 19:39:00,
2013-02-18 13:45:00,46.3,36.7,29.60,SSE,154,3.0,9.0,69,0.00,,,0.00,260,Wunderground v.1.15,2013-02-18 19:45:00,
2013-02-18 13:50:00,46.3,37.0,29.60,South,173,2.0,5.0,70,0.00,,,0.00,292,Wunderground v.1.15,2013-02-18 19:50:00,
2013-02-18 13:56:00,46.7,37.4,29.60,SSW,210,3.0,5.0,70,0.00,,,0.00,285,Wunderground v.1.15,2013-02-18 19:56:00,
2013-02-18 14:04:00,46.7,37.4,29.60,South,169,3.0,4.0,70,0.00,,,0.00,327,Wunderground v.1.15,2013-02-18 20:04:00,
2013-02-18 14:09:00,47.0,37.7,29.60,South,190,3.0,7.0,70,0.00,,,0.00,213,Wunderground v.1.15,2013-02-18 20:09:00,
2013-02-18 14:14:00,46.9,38.0,29.60,SE,131,3.0,9.0,71,0.00,,,0.00,135,Wunderground v.1.15,2013-02-18 20:14:00,
2013-02-18 14:19:00,46.5,38.0,29.60,SSE,162,3.0,9.0,72,0.00,,,0.00,125,Wunderground v.1.15,2013-02-18 20:19:00,
2013-02-18 14:25:00,46.5,38.0,29.60,SSW,192,3.0,6.0,72,0.00,,,0.00,102,Wunderground v.1.15,2013-02-18 20:25:00,
2013-02-18 14:30:00,46.3,38.1,29.59,West,271,3.0,3.0,73,0.00,,,0.00,86,Wunderground v.1.15,2013-02-18 20:30:00,
2013-02-18 14:35:00,46.4,38.2,29.59,South,186,2.0,3.0,73,0.00,,,0.00,95,Wunderground v.1.15,2013-02-18 20:35:00,
2013-02-18 14:41:00,46.5,38.3,29.59,SSW,207,2.0,3.0,73,0.00,,,0.00,142,Wunderground v.1.15,2013-02-18 20:41:00,
2013-02-18 14:46:00,46.4,38.6,29.59,ESE,118,3.0,4.0,74,0.00,,,0.00,60,Wunderground v.1.15,2013-02-18 20:46:00,
2013-02-18 14:52:00,46.2,38.4,29.59,South,173,2.0,3.0,74,0.00,,,0.00,44,Wunderground v.1.15,2013-02-18 20:52:00,
2013-02-18 14:59:00,46.1,38.6,29.59,SSW,198,2.0,3.0,75,0.00,,,0.00,60,Wunderground v.1.15,2013-02-18 20:59:00,
2013-02-18 15:04:00,46.0,38.5,29.59,SSE,166,2.0,2.0,75,0.00,,,0.00,91,Wunderground v.1.15,2013-02-18 21:04:00,
2013-02-18 15:09:00,46.0,38.9,29.59,SSW,194,2.0,4.0,76,0.00,,,0.00,51,Wunderground v.1.15,2013-02-18 21:09:00,
2013-02-18 15:15:00,45.8,38.7,29.58,SSW,195,2.0,2.0,76,0.00,,,0.00,62,Wunderground v.1.15,2013-02-18 21:15:00,
2013-02-18 15:20:00,45.7,38.6,29.58,South,186,2.0,2.0,76,0.00,,,0.00,54,Wunderground v.1.15,2013-02-18 21:20:00,
2013-02-18 15:25:00,45.5,38.7,29.58,SW,217,1.0,4.0,77,0.00,,,0.00,49,Wunderground v.1.15,2013-02-18 21:25:00,
2013-02-18 15:30:00,45.6,39.1,29.57,SSW,200,2.0,2.0,78,0.00,,,0.00,54,Wunderground v.1.15,2013-02-18 21:30:00,
2013-02-18 15:36:00,45.6,39.5,29.57,SW,220,2.0,2.0,79,0.00,,,0.00,107,Wunderground v.1.15,2013-02-18 21:36:00,
2013-02-18 15:41:00,45.4,38.9,29.57,SSW,205,2.0,4.0,78,0.00,,,0.00,35,Wunderground v.1.15,2013-02-18 21:41:00,
2013-02-18 15:48:00,45.2,39.1,29.56,SW,214,1.0,5.0,79,0.00,,,0.00,98,Wunderground v.1.15,2013-02-18 21:48:00,
2013-02-18 15:54:00,45.2,39.4,29.56,SSE,153,1.0,5.0,80,0.00,,,0.00,44,Wunderground v.1.15,2013-02-18 21:54:00,
2013-02-18 15:59:00,45.1,39.3,29.56,SW,225,1.0,5.0,80,0.00,,,0.00,21,Wunderground v.1.15,2013-02-18 21:59:00,
2013-02-18 16:04:00,45.0,39.2,29.55,SSW,206,2.0,2.0,80,0.00,,,0.00,16,Wunderground v.1.15,2013-02-18 22:04:00,
2013-02-18 16:09:00,44.9,39.4,29.55,SSW,199,2.0,2.0,81,0.00,,,0.00,21,Wunderground v.1.15,2013-02-18 22:09:00,
2013-02-18 16:15:00,44.7,39.2,29.54,SSW,205,1.0,2.0,81,0.00,,,0.00,32,Wunderground v.1.15,2013-02-18 22:15:00,
2013-02-18 16:22:00,44.8,39.6,29.54,SSW,210,1.0,1.0,82,0.00,,,0.00,7,Wunderground v.1.15,2013-02-18 22:22:00,
2013-02-18 16:27:00,44.5,39.3,29.54,SE,146,1.0,1.0,82,0.00,,,0.00,5,Wunderground v.1.15,2013-02-18 22:27:00,
2013-02-18 16:34:00,44.3,39.5,29.53,SSW,199,0.0,1.0,83,0.00,,,0.00,5,Wunderground v.1.15,2013-02-18 22:34:00,
2013-02-18 16:40:00,44.2,39.7,29.53,SSW,211,1.0,1.0,84,0.00,,,0.00,0,Wunderground v.1.15,2013-02-18 22:40:00,
2013-02-18 16:46:00,44.1,39.6,29.53,South,187,1.0,1.0,84,0.00,,,0.00,0,Wunderground v.1.15,2013-02-18 22:46:00,
2013-02-18 16:51:00,43.9,39.7,29.53,SSW,198,1.0,1.0,85,0.00,,,0.00,0,Wunderground v.1.15,2013-02-18 22:51:00,
2013-02-18 16:56:00,43.8,39.9,29.53,South,182,1.0,1.0,86,0.00,,,0.00,0,Wunderground v.1.15,2013-02-18 22:56:00,
2013-02-18 17:03:00,43.4,39.8,29.52,SE,142,0.0,1.0,87,0.00,,,0.00,0,Wunderground v.1.15,2013-02-18 23:03:00,
2013-02-18 17:09:00,43.4,39.8,29.52,South,190,0.0,1.0,87,0.00,,,0.00,0,Wunderground v.1.15,2013-02-18 23:09:00,
2013-02-18 17:15:00,43.5,40.2,29.51,South,180,0.0,2.0,88,0.00,,,0.00,0,Wunderground v.1.15,2013-02-18 23:15:00,
2013-02-18 17:20:00,43.6,40.0,29.51,SSE,162,0.0,0.0,87,0.00,,,0.00,0,Wunderground v.1.15,2013-02-18 23:20:00,
2013-02-18 17:25:00,43.5,40.2,29.51,SSE,162,0.0,0.0,88,0.00,,,0.00,0,Wunderground v.1.15,2013-02-18 23:25:00,
2013-02-18 17:30:00,43.7,40.4,29.50,SSE,162,0.0,0.0,88,0.00,,,0.00,0,Wunderground v.1.15,2013-02-18 23:30:00,
2013-02-18 17:35:00,43.7,40.4,29.50,SSE,162,0.0,3.0,88,0.00,,,0.01,0,Wunderground v.1.15,2013-02-18 23:35:00,
2013-02-18 17:40:00,43.9,40.9,29.50,SSE,157,1.0,1.0,89,0.12,,,0.02,0,Wunderground v.1.15,2013-02-18 23:40:00,
2013-02-18 17:46:00,43.5,40.5,29.50,SSE,157,1.0,1.0,89,0.08,,,0.02,0,Wunderground v.1.15,2013-02-18 23:46:00,
2013-02-18 17:54:00,43.3,40.6,29.50,SE,144,0.0,2.0,90,0.14,,,0.03,0,Wunderground v.1.15,2013-02-18 23:54:00,
2013-02-18 17:59:00,43.3,40.8,29.49,SE,144,0.0,2.0,91,0.20,,,0.05,0,Wunderground v.1.15,2013-02-18 23:59:00,
2013-02-18 18:05:00,43.3,40.8,29.49,SE,144,0.0,1.0,91,0.14,,,0.06,0,Wunderground v.1.15,2013-02-19 00:05:00,
2013-02-18 18:10:00,43.1,40.7,29.49,SE,144,0.0,0.0,91,0.15,,,0.08,0,Wunderground v.1.15,2013-02-19 00:10:00,
2013-02-18 18:16:00,42.7,40.3,29.49,SE,144,0.0,0.0,91,0.13,,,0.09,0,Wunderground v.1.15,2013-02-19 00:16:00,
2013-02-18 18:21:00,42.4,40.2,29.49,SE,144,0.0,0.0,92,0.12,,,0.10,0,Wunderground v.1.15,2013-02-19 00:21:00,
2013-02-18 18:27:00,42.4,40.2,29.49,SE,138,0.0,2.0,92,0.17,,,0.12,0,Wunderground v.1.15,2013-02-19 00:27:00,
2013-02-18 18:32:00,42.9,41.0,29.48,SE,127,1.0,3.0,93,0.15,,,0.13,0,Wunderground v.1.15,2013-02-19 00:32:00,
2013-02-18 18:38:00,43.4,41.5,29.48,SE,136,2.0,4.0,93,0.17,,,0.15,0,Wunderground v.1.15,2013-02-19 00:38:00,
2013-02-18 18:44:00,42.9,41.0,29.48,West,276,3.0,7.0,93,0.24,,,0.17,0,Wunderground v.1.15,2013-02-19 00:44:00,
2013-02-18 18:49:00,42.6,40.7,29.48,SW,230,4.0,7.0,93,0.29,,,0.19,0,Wunderground v.1.15,2013-02-19 00:49:00,
2013-02-18 18:54:00,42.6,40.7,29.48,SW,230,2.0,4.0,93,0.17,,,0.21,0,Wunderground v.1.15,2013-02-19 00:54:00,
2013-02-18 19:00:00,42.6,40.7,29.47,WSW,241,1.0,5.0,93,0.15,,,0.23,0,Wunderground v.1.15,2013-02-19 01:00:00,
2013-02-18 19:05:00,42.8,40.9,29.47,WSW,253,3.0,8.0,93,0.11,,,0.24,0,Wunderground v.1.15,2013-02-19 01:05:00,
2013-02-18 19:11:00,42.7,40.8,29.47,West,263,5.0,6.0,93,0.26,,,0.26,0,Wunderground v.1.15,2013-02-19 01:11:00,
2013-02-18 19:16:00,42.3,40.4,29.47,West,273,7.0,16.0,93,0.25,,,0.28,0,Wunderground v.1.15,2013-02-19 01:16:00,
2013-02-18 19:23:00,42.0,39.6,29.47,West,263,12.0,14.0,91,0.09,,,0.30,0,Wunderground v.1.15,2013-02-19 01:23:00,
2013-02-18 19:29:00,41.5,39.1,29.47,West,261,12.0,14.0,91,0.09,,,0.30,0,Wunderground v.1.15,2013-02-19 01:29:00,
2013-02-18 19:34:00,41.0,38.3,29.48,NW,307,11.0,15.0,90,0.08,,,0.31,0,Wunderground v.1.15,2013-02-19 01:34:00,
2013-02-18 19:40:00,40.4,37.7,29.48,WNW,286,11.0,14.0,90,0.06,,,0.31,0,Wunderground v.1.15,2013-02-19 01:40:00,
2013-02-18 19:45:00,39.8,36.8,29.47,WNW,292,13.0,14.0,89,0.04,,,0.31,0,Wunderground v.1.15,2013-02-19 01:45:00,
2013-02-18 19:51:00,39.1,36.1,29.47,NW,313,13.0,13.0,89,0.00,,,0.32,0,Wunderground v.1.15,2013-02-19 01:51:00,
2013-02-18 19:56:00,38.6,35.6,29.47,NW,323,11.0,13.0,89,0.00,,,0.32,0,Wunderground v.1.15,2013-02-19 01:56:00,
2013-02-18 20:01:00,38.0,35.0,29.47,NW,321,11.0,11.0,89,0.00,,,0.32,0,Wunderground v.1.15,2013-02-19 02:01:00,
2013-02-18 20:07:00,37.5,34.3,29.47,NW,317,11.0,13.0,88,0.04,,,0.33,0,Wunderground v.1.15,2013-02-19 02:07:00,
2013-02-18 20:14:00,36.8,33.6,29.47,NW,304,12.0,13.0,88,0.10,,,0.34,0,Wunderground v.1.15,2013-02-19 02:14:00,
2013-02-18 20:19:00,36.3,33.4,29.47,WNW,297,11.0,13.0,89,0.11,,,0.35,0,Wunderground v.1.15,2013-02-19 02:19:00,
2013-02-18 20:24:00,35.8,32.9,29.47,NW,304,10.0,12.0,89,0.09,,,0.35,0,Wunderground v.1.15,2013-02-19 02:24:00,
2013-02-18 20:29:00,35.3,32.7,29.46,WNW,302,10.0,12.0,90,0.06,,,0.36,0,Wunderground v.1.15,2013-02-19 02:29:00,
2013-02-18 20:35:00,34.7,32.1,29.46,NW,309,9.0,10.0,90,0.08,,,0.37,0,Wunderground v.1.15,2013-02-19 02:35:00,
2013-02-18 20:41:00,33.9,31.3,29.46,WNW,295,7.0,7.0,90,0.08,,,0.37,0,Wunderground v.1.15,2013-02-19 02:41:00,
2013-02-18 20:49:00,33.4,31.1,29.46,WNW,296,5.0,7.0,91,0.04,,,0.37,0,Wunderground v.1.15,2013-02-19 02:49:00,
2013-02-18 20:55:00,33.2,30.9,29.46,WNW,296,5.0,6.0,91,0.00,,,0.38,0,Wunderground v.1.15,2013-02-19 02:55:00,
2013-02-18 21:01:00,33.1,31.0,29.46,WNW,302,5.0,5.0,92,0.00,,,0.38,0,Wunderground v.1.15,2013-02-19 03:01:00,
2013-02-18 21:06:00,33.1,31.0,29.46,West,275,6.0,9.0,92,0.00,,,0.38,0,Wunderground v.1.15,2013-02-19 03:06:00,
2013-02-18 21:13:00,33.0,30.9,29.46,West,278,7.0,8.0,92,0.00,,,0.38,0,Wunderground v.1.15,2013-02-19 03:13:00,
2013-02-18 21:19:00,33.0,30.9,29.47,WNW,288,7.0,9.0,92,0.00,,,0.38,0,Wunderground v.1.15,2013-02-19 03:19:00,
2013-02-18 21:24:00,33.1,31.0,29.47,WNW,285,8.0,11.0,92,0.00,,,0.39,0,Wunderground v.1.15,2013-02-19 03:24:00,
2013-02-18 21:30:00,33.1,31.3,29.46,WNW,282,8.0,8.0,93,0.00,,,0.39,0,Wunderground v.1.15,2013-02-19 03:30:00,
2013-02-18 21:35:00,33.2,31.1,29.46,West,267,8.0,10.0,92,0.00,,,0.39,0,Wunderground v.1.15,2013-02-19 03:35:00,
2013-02-18 21:41:00,33.2,31.1,29.46,NW,311,8.0,8.0,92,0.00,,,0.39,0,Wunderground v.1.15,2013-02-19 03:41:00,
2013-02-18 21:47:00,33.2,31.1,29.47,WNW,284,8.0,9.0,92,0.00,,,0.40,0,Wunderground v.1.15,2013-02-19 03:47:00,
2013-02-18 21:54:00,33.2,31.4,29.47,WNW,286,8.0,9.0,93,0.00,,,0.40,0,Wunderground v.1.15,2013-02-19 03:54:00,
2013-02-18 21:59:00,33.2,31.4,29.47,WNW,294,8.0,9.0,93,0.00,,,0.40,0,Wunderground v.1.15,2013-02-19 03:59:00,
2013-02-18 22:05:00,33.3,31.5,29.47,WSW,258,9.0,11.0,93,0.00,,,0.40,0,Wunderground v.1.15,2013-02-19 04:05:00,
2013-02-18 22:10:00,33.4,31.3,29.47,West,277,9.0,9.0,92,0.00,,,0.41,0,Wunderground v.1.15,2013-02-19 04:10:00,
2013-02-18 22:16:00,33.3,31.2,29.48,West,273,9.0,10.0,92,0.00,,,0.41,0,Wunderground v.1.15,2013-02-19 04:16:00,
2013-02-18 22:21:00,33.2,31.1,29.48,West,275,9.0,9.0,92,0.00,,,0.41,0,Wunderground v.1.15,2013-02-19 04:21:00,
2013-02-18 22:26:00,33.1,31.0,29.48,WSW,257,8.0,10.0,92,0.00,,,0.41,0,Wunderground v.1.15,2013-02-19 04:26:00,
2013-02-18 22:31:00,33.1,31.0,29.48,WSW,258,9.0,11.0,92,0.00,,,0.41,0,Wunderground v.1.15,2013-02-19 04:31:00,
2013-02-18 22:38:00,33.2,31.4,29.48,West,273,10.0,12.0,93,0.00,,,0.41,0,Wunderground v.1.15,2013-02-19 04:38:00,
2013-02-18 22:43:00,33.3,31.2,29.48,WNW,284,10.0,10.0,92,0.00,,,0.41,0,Wunderground v.1.15,2013-02-19 04:43:00,
2013-02-18 22:49:00,33.3,31.2,29.49,West,270,10.0,13.0,92,0.00,,,0.41,0,Wunderground v.1.15,2013-02-19 04:49:00,
2013-02-18 22:55:00,33.2,31.1,29.49,WSW,256,10.0,12.0,92,0.00,,,0.41,0,Wunderground v.1.15,2013-02-19 04:55:00,
2013-02-18 23:00:00,33.2,31.1,29.50,West,273,10.0,10.0,92,0.00,,,0.41,0,Wunderground v.1.15,2013-02-19 05:00:00,
2013-02-18 23:04:00,33.1,31.0,29.50,West,261,9.0,11.0,92,0.00,,,0.41,0,Wunderground v.1.15,2013-02-19 05:04:00,
2013-02-18 23:05:00,33.1,31.0,29.50,West,272,9.0,11.0,92,0.00,,,0.41,0,Wunderground v.1.15,2013-02-19 05:05:00,
2013-02-18 23:10:00,33.0,30.9,29.50,WSW,246,10.0,14.0,92,0.00,,,0.41,0,Wunderground v.1.15,2013-02-19 05:10:00,
2013-02-18 23:16:00,32.7,30.6,29.51,West,275,11.0,14.0,92,0.00,,,0.41,0,Wunderground v.1.15,2013-02-19 05:16:00,
2013-02-18 23:22:00,32.3,30.0,29.51,West,281,13.0,15.0,91,0.00,,,0.41,0,Wunderground v.1.15,2013-02-19 05:22:00,
2013-02-18 23:29:00,31.9,29.0,29.51,WNW,284,17.0,23.0,89,0.00,,,0.41,0,Wunderground v.1.15,2013-02-19 05:29:00,
2013-02-18 23:34:00,31.4,28.5,29.52,West,278,17.0,17.0,89,0.00,,,0.41,0,Wunderground v.1.15,2013-02-19 05:34:00,
2013-02-18 23:40:00,31.2,28.6,29.52,WNW,288,15.0,15.0,90,0.00,,,0.41,0,Wunderground v.1.15,2013-02-19 05:40:00,
2013-02-18 23:45:00,30.0,27.2,29.53,WSW,248,16.0,22.0,89,0.00,,,0.41,0,Wunderground v.1.15,2013-02-19 05:45:00,
2013-02-18 23:51:00,29.3,26.5,29.53,West,275,19.0,20.0,89,0.00,,,0.41,0,Wunderground v.1.15,2013-02-19 05:51:00,
2013-02-18 23:56:00,29.1,26.3,29.53,West,274,19.0,20.0,89,0.00,,,0.41,0,Wunderground v.1.15,2013-02-19 05:56:00,